sensor_id;sensor_type;location;lat;lon;timestamp;P1;durP1;ratioP1;P2;durP2;ratioP2
49834;SDS011;35729;52.090;13.162;2022-12-01T00:01:38;115.25;;;41.35;;
49834;SDS011;35729;52.090;13.162;2022-12-01T00:04:07;117.25;;;40.88;;
49834;SDS011;35729;52.090;13.162;2022-12-01T00:06:35;125.07;;;42.95;;
49834;SDS011;35729;52.090;13.162;2022-12-01T00:09:04;124.32;;;42.90;;
49834;SDS011;35729;52.090;13.162;2022-12-01T00:11:59;120.40;;;39.35;;
49834;SDS011;35729;52.090;13.162;2022-12-01T00:14:27;120.47;;;41.67;;
49834;SDS011;35729;52.090;13.162;2022-12-01T00:16:56;109.95;;;39.72;;
49834;SDS011;35729;52.090;13.162;2022-12-01T00:19:24;118.43;;;42.83;;
49834;SDS011;35729;52.090;13.162;2022-12-01T00:21:53;107.18;;;39.22;;
49834;SDS011;35729;52.090;13.162;2022-12-01T00:24:21;127.13;;;41.47;;
49834;SDS011;35729;52.090;13.162;2022-12-01T00:26:50;111.25;;;43.50;;
49834;SDS011;35729;52.090;13.162;2022-12-01T00:29:21;114.65;;;39.60;;
49834;SDS011;35729;52.090;13.162;2022-12-01T00:31:50;113.78;;;42.65;;
49834;SDS011;35729;52.090;13.162;2022-12-01T00:34:20;117.53;;;43.50;;
49834;SDS011;35729;52.090;13.162;2022-12-01T00:36:50;134.68;;;50.28;;
49834;SDS011;35729;52.090;13.162;2022-12-01T00:39:18;125.15;;;42.10;;
49834;SDS011;35729;52.090;13.162;2022-12-01T00:41:47;116.78;;;42.55;;
49834;SDS011;35729;52.090;13.162;2022-12-01T00:44:15;114.07;;;41.85;;
49834;SDS011;35729;52.090;13.162;2022-12-01T00:46:46;108.60;;;39.55;;
49834;SDS011;35729;52.090;13.162;2022-12-01T00:49:15;112.53;;;40.15;;
49834;SDS011;35729;52.090;13.162;2022-12-01T00:51:44;109.30;;;41.22;;
49834;SDS011;35729;52.090;13.162;2022-12-01T00:54:12;106.20;;;40.97;;
49834;SDS011;35729;52.090;13.162;2022-12-01T00:56:41;104.75;;;41.38;;
49834;SDS011;35729;52.090;13.162;2022-12-01T00:59:09;115.30;;;40.28;;
49834;SDS011;35729;52.090;13.162;2022-12-01T01:01:38;124.72;;;43.35;;
49834;SDS011;35729;52.090;13.162;2022-12-01T01:04:09;116.93;;;39.90;;
49834;SDS011;35729;52.090;13.162;2022-12-01T01:06:38;121.78;;;41.80;;
49834;SDS011;35729;52.090;13.162;2022-12-01T01:09:07;123.38;;;41.42;;
49834;SDS011;35729;52.090;13.162;2022-12-01T01:11:36;121.97;;;43.22;;
49834;SDS011;35729;52.090;13.162;2022-12-01T01:14:05;114.32;;;42.53;;
49834;SDS011;35729;52.090;13.162;2022-12-01T01:16:34;113.13;;;40.08;;
49834;SDS011;35729;52.090;13.162;2022-12-01T01:19:03;111.72;;;39.63;;
49834;SDS011;35729;52.090;13.162;2022-12-01T01:21:34;109.13;;;40.72;;
49834;SDS011;35729;52.090;13.162;2022-12-01T01:24:03;111.43;;;40.53;;
49834;SDS011;35729;52.090;13.162;2022-12-01T01:26:32;107.30;;;37.97;;
49834;SDS011;35729;52.090;13.162;2022-12-01T01:29:02;107.07;;;39.47;;
49834;SDS011;35729;52.090;13.162;2022-12-01T01:31:33;112.88;;;41.63;;
49834;SDS011;35729;52.090;13.162;2022-12-01T01:34:02;110.75;;;40.40;;
49834;SDS011;35729;52.090;13.162;2022-12-01T01:36:30;112.68;;;40.22;;
49834;SDS011;35729;52.090;13.162;2022-12-01T01:39:02;102.43;;;38.38;;
49834;SDS011;35729;52.090;13.162;2022-12-01T01:41:31;106.05;;;38.92;;
49834;SDS011;35729;52.090;13.162;2022-12-01T01:43:59;102.93;;;37.75;;
49834;SDS011;35729;52.090;13.162;2022-12-01T01:46:30;113.22;;;39.97;;
49834;SDS011;35729;52.090;13.162;2022-12-01T01:49:01;105.43;;;38.75;;
49834;SDS011;35729;52.090;13.162;2022-12-01T01:51:35;111.53;;;39.47;;
49834;SDS011;35729;52.090;13.162;2022-12-01T01:54:08;101.55;;;36.42;;
49834;SDS011;35729;52.090;13.162;2022-12-01T01:56:41;89.85;;;35.65;;
49834;SDS011;35729;52.090;13.162;2022-12-01T01:59:10;96.05;;;35.80;;
49834;SDS011;35729;52.090;13.162;2022-12-01T02:01:41;91.18;;;32.83;;
49834;SDS011;35729;52.090;13.162;2022-12-01T02:04:10;98.10;;;37.03;;
49834;SDS011;35729;52.090;13.162;2022-12-01T02:06:42;98.75;;;36.05;;
49834;SDS011;35729;52.090;13.162;2022-12-01T02:09:10;99.75;;;35.83;;
49834;SDS011;35729;52.090;13.162;2022-12-01T02:11:55;101.20;;;36.10;;
49834;SDS011;35729;52.090;13.162;2022-12-01T02:17:25;93.57;;;35.08;;
49834;SDS011;35729;52.090;13.162;2022-12-01T02:20:07;94.15;;;35.88;;
49834;SDS011;35729;52.090;13.162;2022-12-01T02:23:00;97.50;;;34.85;;
49834;SDS011;35729;52.090;13.162;2022-12-01T02:25:49;97.53;;;35.10;;
49834;SDS011;35729;52.090;13.162;2022-12-01T02:28:33;93.78;;;36.45;;
49834;SDS011;35729;52.090;13.162;2022-12-01T02:31:17;90.30;;;36.83;;
49834;SDS011;35729;52.090;13.162;2022-12-01T02:33:53;93.80;;;35.55;;
49834;SDS011;35729;52.090;13.162;2022-12-01T02:36:27;94.63;;;34.17;;
49834;SDS011;35729;52.090;13.162;2022-12-01T02:39:04;87.45;;;35.47;;
49834;SDS011;35729;52.090;13.162;2022-12-01T02:41:35;92.93;;;34.53;;
49834;SDS011;35729;52.090;13.162;2022-12-01T02:44:10;85.28;;;33.25;;
49834;SDS011;35729;52.090;13.162;2022-12-01T02:46:48;89.88;;;35.28;;
49834;SDS011;35729;52.090;13.162;2022-12-01T02:49:21;89.65;;;33.83;;
49834;SDS011;35729;52.090;13.162;2022-12-01T02:51:54;95.63;;;34.65;;
49834;SDS011;35729;52.090;13.162;2022-12-01T02:54:24;92.65;;;34.80;;
49834;SDS011;35729;52.090;13.162;2022-12-01T02:56:56;95.80;;;35.00;;
49834;SDS011;35729;52.090;13.162;2022-12-01T02:59:25;100.30;;;34.30;;
49834;SDS011;35729;52.090;13.162;2022-12-01T03:01:59;98.45;;;37.25;;
49834;SDS011;35729;52.090;13.162;2022-12-01T03:04:45;97.00;;;35.47;;
49834;SDS011;35729;52.090;13.162;2022-12-01T03:07:32;101.03;;;37.55;;
49834;SDS011;35729;52.090;13.162;2022-12-01T03:10:12;88.47;;;33.40;;
49834;SDS011;35729;52.090;13.162;2022-12-01T03:12:49;96.22;;;33.53;;
49834;SDS011;35729;52.090;13.162;2022-12-01T03:15:29;90.55;;;34.72;;
49834;SDS011;35729;52.090;13.162;2022-12-01T03:18:09;98.07;;;34.28;;
49834;SDS011;35729;52.090;13.162;2022-12-01T03:20:47;101.75;;;37.85;;
49834;SDS011;35729;52.090;13.162;2022-12-01T03:23:29;101.15;;;37.85;;
49834;SDS011;35729;52.090;13.162;2022-12-01T03:26:09;100.40;;;34.20;;
49834;SDS011;35729;52.090;13.162;2022-12-01T03:28:50;110.18;;;35.08;;
49834;SDS011;35729;52.090;13.162;2022-12-01T03:31:22;104.88;;;35.60;;
49834;SDS011;35729;52.090;13.162;2022-12-01T03:36:32;104.45;;;37.58;;
49834;SDS011;35729;52.090;13.162;2022-12-01T03:39:07;108.00;;;34.97;;
49834;SDS011;35729;52.090;13.162;2022-12-01T03:41:41;109.05;;;37.15;;
49834;SDS011;35729;52.090;13.162;2022-12-01T03:46:47;107.50;;;35.42;;
49834;SDS011;35729;52.090;13.162;2022-12-01T03:49:23;109.28;;;35.55;;
49834;SDS011;35729;52.090;13.162;2022-12-01T03:51:54;105.28;;;35.78;;
49834;SDS011;35729;52.090;13.162;2022-12-01T03:54:36;104.88;;;36.92;;
49834;SDS011;35729;52.090;13.162;2022-12-01T03:57:14;109.15;;;37.35;;
49834;SDS011;35729;52.090;13.162;2022-12-01T03:59:47;111.97;;;36.93;;
49834;SDS011;35729;52.090;13.162;2022-12-01T04:02:16;107.28;;;37.72;;
49834;SDS011;35729;52.090;13.162;2022-12-01T04:04:48;104.88;;;37.15;;
49834;SDS011;35729;52.090;13.162;2022-12-01T04:07:16;117.43;;;38.45;;
49834;SDS011;35729;52.090;13.162;2022-12-01T04:09:44;102.70;;;36.78;;
49834;SDS011;35729;52.090;13.162;2022-12-01T04:12:13;106.45;;;36.97;;
49834;SDS011;35729;52.090;13.162;2022-12-01T04:14:55;113.60;;;38.95;;
49834;SDS011;35729;52.090;13.162;2022-12-01T04:17:24;112.13;;;37.83;;
49834;SDS011;35729;52.090;13.162;2022-12-01T04:19:56;113.93;;;37.47;;
49834;SDS011;35729;52.090;13.162;2022-12-01T04:22:25;112.57;;;35.63;;
49834;SDS011;35729;52.090;13.162;2022-12-01T04:24:53;107.53;;;37.22;;
49834;SDS011;35729;52.090;13.162;2022-12-01T04:27:22;107.63;;;35.88;;
49834;SDS011;35729;52.090;13.162;2022-12-01T04:29:51;106.68;;;36.35;;
49834;SDS011;35729;52.090;13.162;2022-12-01T04:32:19;113.05;;;38.45;;
49834;SDS011;35729;52.090;13.162;2022-12-01T04:34:48;111.20;;;39.25;;
49834;SDS011;35729;52.090;13.162;2022-12-01T04:37:19;104.95;;;35.78;;
49834;SDS011;35729;52.090;13.162;2022-12-01T04:39:47;113.72;;;38.13;;
49834;SDS011;35729;52.090;13.162;2022-12-01T04:42:16;115.00;;;39.05;;
49834;SDS011;35729;52.090;13.162;2022-12-01T04:44:44;97.20;;;35.58;;
49834;SDS011;35729;52.090;13.162;2022-12-01T04:47:13;111.00;;;36.92;;
49834;SDS011;35729;52.090;13.162;2022-12-01T04:49:41;113.38;;;38.25;;
49834;SDS011;35729;52.090;13.162;2022-12-01T04:52:10;116.75;;;38.03;;
49834;SDS011;35729;52.090;13.162;2022-12-01T04:54:41;108.50;;;38.60;;
49834;SDS011;35729;52.090;13.162;2022-12-01T04:57:09;113.82;;;39.10;;
49834;SDS011;35729;52.090;13.162;2022-12-01T04:59:38;107.20;;;38.00;;
49834;SDS011;35729;52.090;13.162;2022-12-01T05:02:06;112.82;;;37.78;;
49834;SDS011;35729;52.090;13.162;2022-12-01T05:04:35;113.90;;;38.03;;
49834;SDS011;35729;52.090;13.162;2022-12-01T05:07:05;111.75;;;38.08;;
49834;SDS011;35729;52.090;13.162;2022-12-01T05:09:34;112.55;;;37.17;;
49834;SDS011;35729;52.090;13.162;2022-12-01T05:12:06;123.50;;;45.80;;
49834;SDS011;35729;52.090;13.162;2022-12-01T05:14:34;110.38;;;36.28;;
49834;SDS011;35729;52.090;13.162;2022-12-01T05:17:03;118.25;;;38.72;;
49834;SDS011;35729;52.090;13.162;2022-12-01T05:19:31;111.57;;;37.88;;
49834;SDS011;35729;52.090;13.162;2022-12-01T05:22:12;106.22;;;39.05;;
49834;SDS011;35729;52.090;13.162;2022-12-01T05:24:40;105.07;;;35.05;;
49834;SDS011;35729;52.090;13.162;2022-12-01T05:27:11;104.57;;;37.17;;
49834;SDS011;35729;52.090;13.162;2022-12-01T05:29:40;105.68;;;36.03;;
49834;SDS011;35729;52.090;13.162;2022-12-01T05:32:08;113.20;;;39.95;;
49834;SDS011;35729;52.090;13.162;2022-12-01T05:34:37;103.13;;;37.00;;
49834;SDS011;35729;52.090;13.162;2022-12-01T05:37:05;103.97;;;38.45;;
49834;SDS011;35729;52.090;13.162;2022-12-01T05:39:34;112.53;;;40.38;;
49834;SDS011;35729;52.090;13.162;2022-12-01T05:42:04;111.07;;;39.92;;
49834;SDS011;35729;52.090;13.162;2022-12-01T05:44:35;105.50;;;35.63;;
49834;SDS011;35729;52.090;13.162;2022-12-01T05:47:04;110.20;;;39.50;;
49834;SDS011;35729;52.090;13.162;2022-12-01T05:49:32;126.53;;;42.13;;
49834;SDS011;35729;52.090;13.162;2022-12-01T05:52:00;122.25;;;41.03;;
49834;SDS011;35729;52.090;13.162;2022-12-01T05:54:29;116.78;;;41.65;;
49834;SDS011;35729;52.090;13.162;2022-12-01T05:56:57;103.10;;;39.42;;
49834;SDS011;35729;52.090;13.162;2022-12-01T05:59:26;104.00;;;37.13;;
49834;SDS011;35729;52.090;13.162;2022-12-01T06:01:57;109.85;;;37.75;;
49834;SDS011;35729;52.090;13.162;2022-12-01T06:04:25;110.22;;;35.90;;
49834;SDS011;35729;52.090;13.162;2022-12-01T06:06:54;107.10;;;38.17;;
49834;SDS011;35729;52.090;13.162;2022-12-01T06:09:22;105.68;;;38.70;;
49834;SDS011;35729;52.090;13.162;2022-12-01T06:11:51;102.07;;;38.35;;
49834;SDS011;35729;52.090;13.162;2022-12-01T06:14:19;103.95;;;38.20;;
49834;SDS011;35729;52.090;13.162;2022-12-01T06:16:48;106.35;;;39.20;;
49834;SDS011;35729;52.090;13.162;2022-12-01T06:19:19;116.60;;;41.55;;
49834;SDS011;35729;52.090;13.162;2022-12-01T06:21:47;103.93;;;39.20;;
49834;SDS011;35729;52.090;13.162;2022-12-01T06:24:16;103.03;;;38.08;;
49834;SDS011;35729;52.090;13.162;2022-12-01T06:26:44;109.65;;;38.05;;
49834;SDS011;35729;52.090;13.162;2022-12-01T06:29:13;101.50;;;37.85;;
49834;SDS011;35729;52.090;13.162;2022-12-01T06:31:41;102.55;;;36.33;;
49834;SDS011;35729;52.090;13.162;2022-12-01T06:34:10;101.60;;;39.42;;
49834;SDS011;35729;52.090;13.162;2022-12-01T06:36:41;102.38;;;37.80;;
49834;SDS011;35729;52.090;13.162;2022-12-01T06:39:10;102.40;;;38.80;;
49834;SDS011;35729;52.090;13.162;2022-12-01T06:41:38;97.18;;;35.80;;
49834;SDS011;35729;52.090;13.162;2022-12-01T06:44:07;103.85;;;40.28;;
49834;SDS011;35729;52.090;13.162;2022-12-01T06:46:35;102.97;;;41.00;;
49834;SDS011;35729;52.090;13.162;2022-12-01T06:49:04;104.38;;;40.60;;
49834;SDS011;35729;52.090;13.162;2022-12-01T06:51:32;102.40;;;39.75;;
49834;SDS011;35729;52.090;13.162;2022-12-01T06:54:03;99.38;;;37.20;;
49834;SDS011;35729;52.090;13.162;2022-12-01T06:56:32;92.65;;;34.67;;
49834;SDS011;35729;52.090;13.162;2022-12-01T06:59:00;103.75;;;40.60;;
49834;SDS011;35729;52.090;13.162;2022-12-01T07:01:29;95.85;;;36.67;;
49834;SDS011;35729;52.090;13.162;2022-12-01T07:03:57;97.15;;;39.30;;
49834;SDS011;35729;52.090;13.162;2022-12-01T07:06:27;108.82;;;38.30;;
49834;SDS011;35729;52.090;13.162;2022-12-01T07:08:56;97.07;;;38.13;;
49834;SDS011;35729;52.090;13.162;2022-12-01T07:11:27;97.03;;;41.28;;
49834;SDS011;35729;52.090;13.162;2022-12-01T07:13:56;100.20;;;39.38;;
49834;SDS011;35729;52.090;13.162;2022-12-01T07:16:25;90.78;;;37.78;;
49834;SDS011;35729;52.090;13.162;2022-12-01T07:18:53;102.75;;;38.97;;
49834;SDS011;35729;52.090;13.162;2022-12-01T07:21:24;95.75;;;38.08;;
49834;SDS011;35729;52.090;13.162;2022-12-01T07:23:53;93.68;;;37.78;;
49834;SDS011;35729;52.090;13.162;2022-12-01T07:26:22;98.75;;;38.47;;
49834;SDS011;35729;52.090;13.162;2022-12-01T07:28:53;97.30;;;39.17;;
49834;SDS011;35729;52.090;13.162;2022-12-01T07:31:21;99.97;;;37.33;;
49834;SDS011;35729;52.090;13.162;2022-12-01T07:33:50;100.47;;;40.17;;
49834;SDS011;35729;52.090;13.162;2022-12-01T07:36:18;99.43;;;40.22;;
49834;SDS011;35729;52.090;13.162;2022-12-01T07:38:47;97.07;;;39.80;;
49834;SDS011;35729;52.090;13.162;2022-12-01T07:41:16;97.97;;;38.13;;
49834;SDS011;35729;52.090;13.162;2022-12-01T07:43:45;98.05;;;39.85;;
49834;SDS011;35729;52.090;13.162;2022-12-01T07:46:18;97.20;;;39.22;;
49834;SDS011;35729;52.090;13.162;2022-12-01T07:48:47;89.30;;;37.25;;
49834;SDS011;35729;52.090;13.162;2022-12-01T07:51:16;97.15;;;37.53;;
49834;SDS011;35729;52.090;13.162;2022-12-01T07:53:45;95.30;;;39.15;;
49834;SDS011;35729;52.090;13.162;2022-12-01T07:56:15;103.55;;;41.50;;
49834;SDS011;35729;52.090;13.162;2022-12-01T07:58:44;107.60;;;40.70;;
49834;SDS011;35729;52.090;13.162;2022-12-01T08:01:13;110.40;;;39.78;;
49834;SDS011;35729;52.090;13.162;2022-12-01T08:03:46;98.80;;;40.00;;
49834;SDS011;35729;52.090;13.162;2022-12-01T08:06:16;103.72;;;41.40;;
49834;SDS011;35729;52.090;13.162;2022-12-01T08:08:45;102.75;;;38.95;;
49834;SDS011;35729;52.090;13.162;2022-12-01T08:11:14;103.72;;;40.05;;
49834;SDS011;35729;52.090;13.162;2022-12-01T08:13:44;101.85;;;42.45;;
49834;SDS011;35729;52.090;13.162;2022-12-01T08:16:14;145.18;;;58.42;;
49834;SDS011;35729;52.090;13.162;2022-12-01T08:18:46;101.15;;;39.97;;
49834;SDS011;35729;52.090;13.162;2022-12-01T08:21:15;99.90;;;39.75;;
49834;SDS011;35729;52.090;13.162;2022-12-01T08:23:45;101.05;;;43.05;;
49834;SDS011;35729;52.090;13.162;2022-12-01T08:26:15;98.40;;;40.10;;
49834;SDS011;35729;52.090;13.162;2022-12-01T08:28:44;101.50;;;41.80;;
49834;SDS011;35729;52.090;13.162;2022-12-01T08:31:14;96.05;;;41.03;;
49834;SDS011;35729;52.090;13.162;2022-12-01T08:33:47;93.43;;;39.80;;
49834;SDS011;35729;52.090;13.162;2022-12-01T08:36:16;94.47;;;39.80;;
49834;SDS011;35729;52.090;13.162;2022-12-01T08:38:45;98.38;;;39.42;;
49834;SDS011;35729;52.090;13.162;2022-12-01T08:41:15;95.25;;;38.67;;
49834;SDS011;35729;52.090;13.162;2022-12-01T08:43:44;106.47;;;40.78;;
49834;SDS011;35729;52.090;13.162;2022-12-01T08:46:13;104.15;;;42.10;;
49834;SDS011;35729;52.090;13.162;2022-12-01T08:48:44;102.60;;;42.08;;
49834;SDS011;35729;52.090;13.162;2022-12-01T08:51:14;97.50;;;39.80;;
49834;SDS011;35729;52.090;13.162;2022-12-01T08:53:44;102.18;;;43.83;;
49834;SDS011;35729;52.090;13.162;2022-12-01T08:56:15;102.13;;;41.40;;
49834;SDS011;35729;52.090;13.162;2022-12-01T08:58:45;106.20;;;42.97;;
49834;SDS011;35729;52.090;13.162;2022-12-01T09:01:14;102.80;;;41.63;;
49834;SDS011;35729;52.090;13.162;2022-12-01T09:03:46;95.75;;;42.15;;
49834;SDS011;35729;52.090;13.162;2022-12-01T09:06:29;93.40;;;39.20;;
49834;SDS011;35729;52.090;13.162;2022-12-01T09:08:59;102.45;;;41.20;;
49834;SDS011;35729;52.090;13.162;2022-12-01T09:11:34;104.75;;;41.55;;
49834;SDS011;35729;52.090;13.162;2022-12-01T09:14:02;100.53;;;41.58;;
49834;SDS011;35729;52.090;13.162;2022-12-01T09:16:31;97.65;;;40.90;;
49834;SDS011;35729;52.090;13.162;2022-12-01T09:19:02;97.32;;;42.33;;
49834;SDS011;35729;52.090;13.162;2022-12-01T09:21:38;93.60;;;39.47;;
49834;SDS011;35729;52.090;13.162;2022-12-01T09:24:09;98.43;;;40.75;;
49834;SDS011;35729;52.090;13.162;2022-12-01T09:26:38;102.85;;;43.50;;
49834;SDS011;35729;52.090;13.162;2022-12-01T09:29:08;95.07;;;41.53;;
49834;SDS011;35729;52.090;13.162;2022-12-01T09:31:38;91.88;;;40.13;;
49834;SDS011;35729;52.090;13.162;2022-12-01T09:34:11;96.82;;;41.72;;
49834;SDS011;35729;52.090;13.162;2022-12-01T09:36:40;97.05;;;39.45;;
49834;SDS011;35729;52.090;13.162;2022-12-01T09:39:10;97.03;;;39.67;;
49834;SDS011;35729;52.090;13.162;2022-12-01T09:41:41;99.13;;;43.53;;
49834;SDS011;35729;52.090;13.162;2022-12-01T09:44:13;99.82;;;41.38;;
49834;SDS011;35729;52.090;13.162;2022-12-01T09:46:49;105.38;;;43.63;;
49834;SDS011;35729;52.090;13.162;2022-12-01T09:49:25;94.95;;;40.28;;
49834;SDS011;35729;52.090;13.162;2022-12-01T09:52:14;99.55;;;40.97;;
49834;SDS011;35729;52.090;13.162;2022-12-01T09:54:45;98.60;;;40.40;;
49834;SDS011;35729;52.090;13.162;2022-12-01T09:57:16;107.43;;;42.80;;
49834;SDS011;35729;52.090;13.162;2022-12-01T09:59:52;97.20;;;40.13;;
49834;SDS011;35729;52.090;13.162;2022-12-01T10:02:23;101.82;;;43.47;;
49834;SDS011;35729;52.090;13.162;2022-12-01T10:05:00;104.43;;;45.38;;
49834;SDS011;35729;52.090;13.162;2022-12-01T10:07:32;98.97;;;42.30;;
49834;SDS011;35729;52.090;13.162;2022-12-01T10:10:05;100.30;;;42.63;;
49834;SDS011;35729;52.090;13.162;2022-12-01T10:12:40;151.00;;;65.22;;
49834;SDS011;35729;52.090;13.162;2022-12-01T10:15:14;110.10;;;46.38;;
49834;SDS011;35729;52.090;13.162;2022-12-01T10:17:56;101.07;;;41.05;;
49834;SDS011;35729;52.090;13.162;2022-12-01T10:20:43;113.18;;;43.10;;
49834;SDS011;35729;52.090;13.162;2022-12-01T10:23:19;115.75;;;43.92;;
49834;SDS011;35729;52.090;13.162;2022-12-01T10:28:47;98.70;;;44.83;;
49834;SDS011;35729;52.090;13.162;2022-12-01T10:31:38;107.10;;;45.88;;
49834;SDS011;35729;52.090;13.162;2022-12-01T10:34:15;111.47;;;46.15;;
49834;SDS011;35729;52.090;13.162;2022-12-01T10:36:50;109.85;;;46.55;;
49834;SDS011;35729;52.090;13.162;2022-12-01T10:39:26;117.15;;;46.05;;
49834;SDS011;35729;52.090;13.162;2022-12-01T10:42:00;111.20;;;47.10;;
49834;SDS011;35729;52.090;13.162;2022-12-01T10:44:32;112.30;;;46.78;;
49834;SDS011;35729;52.090;13.162;2022-12-01T10:47:02;114.53;;;46.85;;
49834;SDS011;35729;52.090;13.162;2022-12-01T10:49:34;112.57;;;48.10;;
49834;SDS011;35729;52.090;13.162;2022-12-01T10:52:29;118.72;;;50.03;;
49834;SDS011;35729;52.090;13.162;2022-12-01T10:55:00;122.40;;;48.75;;
49834;SDS011;35729;52.090;13.162;2022-12-01T10:57:29;122.78;;;49.58;;
49834;SDS011;35729;52.090;13.162;2022-12-01T10:59:59;117.90;;;50.30;;
49834;SDS011;35729;52.090;13.162;2022-12-01T11:02:31;121.18;;;47.75;;
49834;SDS011;35729;52.090;13.162;2022-12-01T11:05:00;121.03;;;50.25;;
49834;SDS011;35729;52.090;13.162;2022-12-01T11:07:34;125.63;;;52.92;;
49834;SDS011;35729;52.090;13.162;2022-12-01T11:10:14;119.88;;;49.45;;
49834;SDS011;35729;52.090;13.162;2022-12-01T11:12:45;116.78;;;48.13;;
49834;SDS011;35729;52.090;13.162;2022-12-01T11:15:22;121.90;;;48.45;;
49834;SDS011;35729;52.090;13.162;2022-12-01T11:17:56;126.80;;;49.50;;
49834;SDS011;35729;52.090;13.162;2022-12-01T11:20:28;115.50;;;45.60;;
49834;SDS011;35729;52.090;13.162;2022-12-01T11:25:59;123.45;;;49.53;;
49834;SDS011;35729;52.090;13.162;2022-12-01T11:28:31;120.35;;;51.28;;
49834;SDS011;35729;52.090;13.162;2022-12-01T11:36:34;131.05;;;52.83;;
49834;SDS011;35729;52.090;13.162;2022-12-01T11:39:20;124.65;;;51.40;;
49834;SDS011;35729;52.090;13.162;2022-12-01T11:41:53;123.45;;;48.97;;
49834;SDS011;35729;52.090;13.162;2022-12-01T11:44:23;123.32;;;52.53;;
49834;SDS011;35729;52.090;13.162;2022-12-01T11:46:52;122.07;;;51.33;;
49834;SDS011;35729;52.090;13.162;2022-12-01T11:49:23;130.15;;;52.47;;
49834;SDS011;35729;52.090;13.162;2022-12-01T11:51:56;135.07;;;55.03;;
49834;SDS011;35729;52.090;13.162;2022-12-01T11:54:38;136.13;;;53.42;;
49834;SDS011;35729;52.090;13.162;2022-12-01T11:57:22;135.35;;;52.28;;
49834;SDS011;35729;52.090;13.162;2022-12-01T11:59:51;131.02;;;52.75;;
49834;SDS011;35729;52.090;13.162;2022-12-01T12:02:22;128.57;;;54.38;;
49834;SDS011;35729;52.090;13.162;2022-12-01T12:05:01;145.32;;;55.00;;
49834;SDS011;35729;52.090;13.162;2022-12-01T12:07:42;146.40;;;54.22;;
49834;SDS011;35729;52.090;13.162;2022-12-01T12:10:26;141.48;;;55.15;;
49834;SDS011;35729;52.090;13.162;2022-12-01T12:13:09;141.13;;;56.33;;
49834;SDS011;35729;52.090;13.162;2022-12-01T12:15:49;140.25;;;53.05;;
49834;SDS011;35729;52.090;13.162;2022-12-01T12:18:34;145.57;;;53.72;;
49834;SDS011;35729;52.090;13.162;2022-12-01T12:21:13;144.68;;;57.53;;
49834;SDS011;35729;52.090;13.162;2022-12-01T12:23:59;153.30;;;59.63;;
49834;SDS011;35729;52.090;13.162;2022-12-01T12:26:42;142.52;;;56.40;;
49834;SDS011;35729;52.090;13.162;2022-12-01T12:29:22;154.10;;;58.63;;
49834;SDS011;35729;52.090;13.162;2022-12-01T12:32:05;146.40;;;56.08;;
49834;SDS011;35729;52.090;13.162;2022-12-01T12:34:48;143.95;;;56.45;;
49834;SDS011;35729;52.090;13.162;2022-12-01T12:37:25;153.32;;;58.13;;
49834;SDS011;35729;52.090;13.162;2022-12-01T12:40:06;148.32;;;54.85;;
49834;SDS011;35729;52.090;13.162;2022-12-01T12:42:53;134.82;;;55.22;;
49834;SDS011;35729;52.090;13.162;2022-12-01T12:45:34;144.10;;;55.45;;
49834;SDS011;35729;52.090;13.162;2022-12-01T12:48:15;145.10;;;55.65;;
49834;SDS011;35729;52.090;13.162;2022-12-01T12:50:51;144.02;;;54.38;;
49834;SDS011;35729;52.090;13.162;2022-12-01T12:53:32;140.35;;;56.17;;
49834;SDS011;35729;52.090;13.162;2022-12-01T12:56:05;144.40;;;57.72;;
49834;SDS011;35729;52.090;13.162;2022-12-01T12:58:51;140.82;;;54.25;;
49834;SDS011;35729;52.090;13.162;2022-12-01T13:01:24;154.93;;;57.28;;
49834;SDS011;35729;52.090;13.162;2022-12-01T13:03:57;145.60;;;55.67;;
49834;SDS011;35729;52.090;13.162;2022-12-01T13:06:29;142.18;;;54.28;;
49834;SDS011;35729;52.090;13.162;2022-12-01T13:09:03;164.93;;;67.25;;
49834;SDS011;35729;52.090;13.162;2022-12-01T13:11:36;164.98;;;63.95;;
49834;SDS011;35729;52.090;13.162;2022-12-01T13:14:14;153.55;;;57.83;;
49834;SDS011;35729;52.090;13.162;2022-12-01T13:16:48;146.57;;;57.22;;
49834;SDS011;35729;52.090;13.162;2022-12-01T13:19:20;155.07;;;58.45;;
49834;SDS011;35729;52.090;13.162;2022-12-01T13:21:54;153.25;;;55.67;;
49834;SDS011;35729;52.090;13.162;2022-12-01T13:24:23;142.18;;;55.80;;
49834;SDS011;35729;52.090;13.162;2022-12-01T13:26:56;147.48;;;54.70;;
49834;SDS011;35729;52.090;13.162;2022-12-01T13:29:32;150.00;;;58.45;;
49834;SDS011;35729;52.090;13.162;2022-12-01T13:32:03;144.75;;;54.65;;
49834;SDS011;35729;52.090;13.162;2022-12-01T13:34:34;146.07;;;55.65;;
49834;SDS011;35729;52.090;13.162;2022-12-01T13:39:38;138.70;;;54.85;;
49834;SDS011;35729;52.090;13.162;2022-12-01T13:42:17;141.60;;;55.88;;
49834;SDS011;35729;52.090;13.162;2022-12-01T13:44:53;137.55;;;55.38;;
49834;SDS011;35729;52.090;13.162;2022-12-01T13:47:31;143.63;;;57.88;;
49834;SDS011;35729;52.090;13.162;2022-12-01T13:53:10;138.55;;;53.88;;
49834;SDS011;35729;52.090;13.162;2022-12-01T13:58:48;139.70;;;54.08;;
49834;SDS011;35729;52.090;13.162;2022-12-01T14:12:56;138.90;;;55.90;;
49834;SDS011;35729;52.090;13.162;2022-12-01T14:15:29;133.13;;;55.03;;
49834;SDS011;35729;52.090;13.162;2022-12-01T14:18:05;135.98;;;53.95;;
49834;SDS011;35729;52.090;13.162;2022-12-01T14:20:46;131.02;;;53.60;;
49834;SDS011;35729;52.090;13.162;2022-12-01T14:23:23;133.88;;;52.17;;
49834;SDS011;35729;52.090;13.162;2022-12-01T14:34:54;129.00;;;52.78;;
49834;SDS011;35729;52.090;13.162;2022-12-01T14:37:35;126.20;;;53.45;;
49834;SDS011;35729;52.090;13.162;2022-12-01T14:40:12;132.80;;;55.60;;
49834;SDS011;35729;52.090;13.162;2022-12-01T14:42:46;130.43;;;53.17;;
49834;SDS011;35729;52.090;13.162;2022-12-01T14:45:38;116.82;;;51.50;;
49834;SDS011;35729;52.090;13.162;2022-12-01T14:48:10;127.00;;;53.90;;
49834;SDS011;35729;52.090;13.162;2022-12-01T14:50:48;135.40;;;55.42;;
49834;SDS011;35729;52.090;13.162;2022-12-01T14:53:22;122.97;;;52.13;;
49834;SDS011;35729;52.090;13.162;2022-12-01T14:55:56;139.75;;;58.90;;
49834;SDS011;35729;52.090;13.162;2022-12-01T14:58:27;134.57;;;56.53;;
49834;SDS011;35729;52.090;13.162;2022-12-01T15:01:01;132.45;;;55.25;;
49834;SDS011;35729;52.090;13.162;2022-12-01T15:03:33;126.38;;;54.22;;
49834;SDS011;35729;52.090;13.162;2022-12-01T15:06:09;133.52;;;54.97;;
49834;SDS011;35729;52.090;13.162;2022-12-01T15:08:44;122.90;;;53.10;;
49834;SDS011;35729;52.090;13.162;2022-12-01T15:11:18;126.80;;;54.80;;
49834;SDS011;35729;52.090;13.162;2022-12-01T15:13:49;122.75;;;53.00;;
49834;SDS011;35729;52.090;13.162;2022-12-01T15:16:20;123.13;;;52.65;;
49834;SDS011;35729;52.090;13.162;2022-12-01T15:18:50;127.95;;;52.67;;